sensor_id;sensor_type;location;lat;lon;timestamp;pressure;altitude;pressure_sealevel;temperature;humidity
20622;BME280;10470;42.670;23.354;2022-11-21T00:02:25;93491.88;;;11.17;100.00
20622;BME280;10470;42.670;23.354;2022-11-21T00:04:50;93494.13;;;11.50;100.00
20622;BME280;10470;42.670;23.354;2022-11-21T00:07:15;93492.97;;;11.30;100.00
20622;BME280;10470;42.670;23.354;2022-11-21T00:09:41;93492.81;;;11.40;100.00
20622;BME280;10470;42.670;23.354;2022-11-21T00:12:06;93493.59;;;11.14;100.00
20622;BME280;10470;42.670;23.354;2022-11-21T00:14:32;93475.91;;;11.04;100.00
20622;BME280;10470;42.670;23.354;2022-11-21T00:16:58;93444.13;;;11.27;100.00
20622;BME280;10470;42.670;23.354;2022-11-21T00:19:23;93453.38;;;11.41;100.00
20622;BME280;10470;42.670;23.354;2022-11-21T00:21:49;93459.34;;;11.39;100.00
20622;BME280;10470;42.670;23.354;2022-11-21T00:24:14;93451.66;;;11.43;100.00
20622;BME280;10470;42.670;23.354;2022-11-21T00:26:40;93441.69;;;11.34;100.00
20622;BME280;10470;42.670;23.354;2022-11-21T00:29:05;93428.41;;;11.53;100.00
20622;BME280;10470;42.670;23.354;2022-11-21T00:31:31;93422.50;;;11.55;100.00
20622;BME280;10470;42.670;23.354;2022-11-21T00:33:57;93404.38;;;11.52;100.00
20622;BME280;10470;42.670;23.354;2022-11-21T00:36:22;93394.94;;;11.53;100.00
20622;BME280;10470;42.670;23.354;2022-11-21T00:38:47;93434.69;;;11.65;100.00
20622;BME280;10470;42.670;23.354;2022-11-21T00:41:13;93399.94;;;11.60;100.00
20622;BME280;10470;42.670;23.354;2022-11-21T00:43:38;93407.47;;;11.76;100.00
20622;BME280;10470;42.670;23.354;2022-11-21T00:46:04;93418.13;;;11.80;100.00
20622;BME280;10470;42.670;23.354;2022-11-21T00:48:30;93444.56;;;12.00;100.00
20622;BME280;10470;42.670;23.354;2022-11-21T00:50:56;93441.34;;;11.96;100.00
20622;BME280;10470;42.670;23.354;2022-11-21T00:53:21;93415.25;;;11.95;100.00
20622;BME280;10470;42.670;23.354;2022-11-21T00:55:47;93406.72;;;11.76;100.00
20622;BME280;10470;42.670;23.354;2022-11-21T00:58:13;93419.03;;;11.54;100.00
20622;BME280;10470;42.670;23.354;2022-11-21T01:00:38;93425.13;;;11.44;100.00
20622;BME280;10470;42.670;23.354;2022-11-21T01:03:03;93422.22;;;11.53;100.00
20622;BME280;10470;42.670;23.354;2022-11-21T01:05:31;93391.94;;;11.51;100.00
20622;BME280;10470;42.670;23.354;2022-11-21T01:07:57;93398.16;;;11.51;100.00
20622;BME280;10470;42.670;23.354;2022-11-21T01:10:22;93398.63;;;11.44;100.00
20622;BME280;10470;42.670;23.354;2022-11-21T01:12:48;93391.97;;;11.56;100.00
20622;BME280;10470;42.670;23.354;2022-11-21T01:15:13;93391.53;;;11.64;100.00
20622;BME280;10470;42.670;23.354;2022-11-21T01:17:40;93410.69;;;11.32;100.00
20622;BME280;10470;42.670;23.354;2022-11-21T01:20:07;93401.38;;;11.12;100.00
20622;BME280;10470;42.670;23.354;2022-11-21T01:22:32;93425.19;;;11.18;100.00
20622;BME280;10470;42.670;23.354;2022-11-21T01:24:57;93410.56;;;11.15;100.00
20622;BME280;10470;42.670;23.354;2022-11-21T01:27:23;93398.28;;;11.31;100.00
20622;BME280;10470;42.670;23.354;2022-11-21T01:29:48;93367.94;;;11.61;100.00
20622;BME280;10470;42.670;23.354;2022-11-21T01:32:14;93355.44;;;11.37;100.00
20622;BME280;10470;42.670;23.354;2022-11-21T01:34:39;93404.75;;;11.82;100.00
20622;BME280;10470;42.670;23.354;2022-11-21T01:37:05;93391.38;;;11.84;100.00
20622;BME280;10470;42.670;23.354;2022-11-21T01:39:30;93378.56;;;11.47;100.00
20622;BME280;10470;42.670;23.354;2022-11-21T01:41:55;93403.84;;;11.48;100.00
20622;BME280;10470;42.670;23.354;2022-11-21T01:44:23;93385.66;;;11.82;100.00
20622;BME280;10470;42.670;23.354;2022-11-21T01:46:50;93396.97;;;12.18;100.00
20622;BME280;10470;42.670;23.354;2022-11-21T01:49:23;93384.13;;;12.30;100.00
20622;BME280;10470;42.670;23.354;2022-11-21T01:59:27;93403.47;;;11.72;100.00
20622;BME280;10470;42.670;23.354;2022-11-21T02:01:55;93424.47;;;11.54;100.00
20622;BME280;10470;42.670;23.354;2022-11-21T02:04:23;93397.19;;;11.54;100.00
20622;BME280;10470;42.670;23.354;2022-11-21T02:06:51;93400.16;;;11.56;100.00
20622;BME280;10470;42.670;23.354;2022-11-21T02:09:17;93401.47;;;11.72;100.00
20622;BME280;10470;42.670;23.354;2022-11-21T02:11:50;93416.06;;;11.58;100.00
20622;BME280;10470;42.670;23.354;2022-11-21T02:14:17;93439.13;;;11.57;100.00
20622;BME280;10470;42.670;23.354;2022-11-21T02:16:43;93425.41;;;11.46;100.00
20622;BME280;10470;42.670;23.354;2022-11-21T02:19:11;93395.81;;;11.76;100.00
20622;BME280;10470;42.670;23.354;2022-11-21T02:21:54;93408.91;;;11.72;100.00
20622;BME280;10470;42.670;23.354;2022-11-21T02:26:59;93416.00;;;11.47;100.00
20622;BME280;10470;42.670;23.354;2022-11-21T02:29:25;93425.94;;;11.55;100.00
20622;BME280;10470;42.670;23.354;2022-11-21T02:31:51;93435.84;;;11.53;100.00
20622;BME280;10470;42.670;23.354;2022-11-21T02:34:17;93413.88;;;11.68;100.00
20622;BME280;10470;42.670;23.354;2022-11-21T02:36:45;93406.22;;;11.77;100.00
20622;BME280;10470;42.670;23.354;2022-11-21T02:39:21;93411.72;;;11.83;100.00
20622;BME280;10470;42.670;23.354;2022-11-21T02:41:53;93396.50;;;11.65;100.00
20622;BME280;10470;42.670;23.354;2022-11-21T02:44:26;93385.91;;;11.78;100.00
20622;BME280;10470;42.670;23.354;2022-11-21T02:46:53;93363.06;;;11.76;100.00
20622;BME280;10470;42.670;23.354;2022-11-21T02:49:37;93374.19;;;11.72;100.00
20622;BME280;10470;42.670;23.354;2022-11-21T02:52:05;93364.03;;;11.73;100.00
20622;BME280;10470;42.670;23.354;2022-11-21T02:54:30;93357.94;;;11.89;100.00
20622;BME280;10470;42.670;23.354;2022-11-21T02:56:55;93350.84;;;11.60;100.00
20622;BME280;10470;42.670;23.354;2022-11-21T02:59:21;93331.78;;;11.66;100.00
20622;BME280;10470;42.670;23.354;2022-11-21T03:01:47;93335.97;;;11.67;100.00
20622;BME280;10470;42.670;23.354;2022-11-21T03:04:13;93343.19;;;11.70;100.00
20622;BME280;10470;42.670;23.354;2022-11-21T03:06:38;93329.50;;;11.58;100.00
20622;BME280;10470;42.670;23.354;2022-11-21T03:09:04;93340.41;;;11.53;100.00
20622;BME280;10470;42.670;23.354;2022-11-21T03:11:29;93323.03;;;11.56;100.00
20622;BME280;10470;42.670;23.354;2022-11-21T03:13:54;93343.97;;;11.81;100.00
20622;BME280;10470;42.670;23.354;2022-11-21T03:16:20;93345.03;;;11.95;100.00
20622;BME280;10470;42.670;23.354;2022-11-21T03:18:45;93355.63;;;11.82;100.00
20622;BME280;10470;42.670;23.354;2022-11-21T03:21:11;93357.31;;;11.68;100.00
20622;BME280;10470;42.670;23.354;2022-11-21T03:23:36;93359.09;;;11.77;100.00
20622;BME280;10470;42.670;23.354;2022-11-21T03:26:01;93350.44;;;11.78;100.00
20622;BME280;10470;42.670;23.354;2022-11-21T03:28:27;93366.88;;;12.01;100.00
20622;BME280;10470;42.670;23.354;2022-11-21T03:30:52;93368.09;;;11.89;100.00
20622;BME280;10470;42.670;23.354;2022-11-21T03:33:18;93361.75;;;11.60;100.00
20622;BME280;10470;42.670;23.354;2022-11-21T03:35:43;93357.94;;;11.89;100.00
20622;BME280;10470;42.670;23.354;2022-11-21T03:38:09;93356.97;;;11.98;100.00
20622;BME280;10470;42.670;23.354;2022-11-21T03:40:34;93355.03;;;12.15;100.00
20622;BME280;10470;42.670;23.354;2022-11-21T03:43:04;93329.19;;;12.11;100.00
20622;BME280;10470;42.670;23.354;2022-11-21T03:45:30;93322.72;;;11.97;100.00
20622;BME280;10470;42.670;23.354;2022-11-21T03:47:55;93351.50;;;11.98;100.00
20622;BME280;10470;42.670;23.354;2022-11-21T03:50:21;93369.97;;;11.71;100.00
20622;BME280;10470;42.670;23.354;2022-11-21T03:52:46;93368.53;;;11.76;100.00
20622;BME280;10470;42.670;23.354;2022-11-21T03:55:12;93354.47;;;11.89;100.00
20622;BME280;10470;42.670;23.354;2022-11-21T03:57:38;93339.34;;;11.99;100.00
20622;BME280;10470;42.670;23.354;2022-11-21T04:00:03;93352.03;;;12.08;100.00
20622;BME280;10470;42.670;23.354;2022-11-21T04:02:29;93346.56;;;12.08;100.00
20622;BME280;10470;42.670;23.354;2022-11-21T04:04:54;93338.16;;;12.22;100.00
20622;BME280;10470;42.670;23.354;2022-11-21T04:07:20;93328.72;;;12.12;100.00
20622;BME280;10470;42.670;23.354;2022-11-21T04:09:45;93351.09;;;12.28;100.00
20622;BME280;10470;42.670;23.354;2022-11-21T04:12:11;93356.34;;;12.48;100.00
20622;BME280;10470;42.670;23.354;2022-11-21T04:14:36;93333.72;;;12.42;100.00
20622;BME280;10470;42.670;23.354;2022-11-21T04:17:01;93330.47;;;12.21;100.00
20622;BME280;10470;42.670;23.354;2022-11-21T04:19:27;93330.72;;;12.29;100.00
20622;BME280;10470;42.670;23.354;2022-11-21T04:21:52;93333.97;;;12.38;100.00
20622;BME280;10470;42.670;23.354;2022-11-21T04:24:18;93332.97;;;12.36;100.00
20622;BME280;10470;42.670;23.354;2022-11-21T04:26:43;93334.97;;;12.30;100.00
20622;BME280;10470;42.670;23.354;2022-11-21T04:29:09;93342.16;;;12.44;100.00
20622;BME280;10470;42.670;23.354;2022-11-21T04:31:34;93355.81;;;12.38;100.00
20622;BME280;10470;42.670;23.354;2022-11-21T04:34:00;93374.22;;;12.60;100.00
20622;BME280;10470;42.670;23.354;2022-11-21T04:36:25;93365.03;;;12.52;100.00
20622;BME280;10470;42.670;23.354;2022-11-21T04:38:51;93342.69;;;12.54;100.00
20622;BME280;10470;42.670;23.354;2022-11-21T04:41:16;93356.56;;;12.50;100.00
20622;BME280;10470;42.670;23.354;2022-11-21T04:43:41;93380.41;;;12.55;100.00
20622;BME280;10470;42.670;23.354;2022-11-21T04:46:07;93387.38;;;12.51;100.00
20622;BME280;10470;42.670;23.354;2022-11-21T04:48:32;93378.16;;;12.42;100.00
20622;BME280;10470;42.670;23.354;2022-11-21T04:50:58;93370.22;;;12.39;100.00
20622;BME280;10470;42.670;23.354;2022-11-21T04:53:24;93375.94;;;12.30;100.00
20622;BME280;10470;42.670;23.354;2022-11-21T04:55:49;93380.81;;;12.09;100.00
20622;BME280;10470;42.670;23.354;2022-11-21T04:58:15;93393.00;;;12.13;100.00
20622;BME280;10470;42.670;23.354;2022-11-21T05:00:40;93403.78;;;11.85;100.00
20622;BME280;10470;42.670;23.354;2022-11-21T05:03:05;93404.44;;;11.63;100.00
20622;BME280;10470;42.670;23.354;2022-11-21T05:05:31;93406.72;;;11.76;100.00
20622;BME280;10470;42.670;23.354;2022-11-21T05:07:57;93403.31;;;11.44;100.00
20622;BME280;10470;42.670;23.354;2022-11-21T05:10:22;93397.94;;;11.18;100.00
20622;BME280;10470;42.670;23.354;2022-11-21T05:12:55;93404.56;;;11.05;100.00
20622;BME280;10470;42.670;23.354;2022-11-21T05:15:39;93392.25;;;11.15;100.00
20622;BME280;10470;42.670;23.354;2022-11-21T05:18:05;93418.75;;;11.15;100.00
20622;BME280;10470;42.670;23.354;2022-11-21T05:20:30;93400.66;;;11.18;100.00
20622;BME280;10470;42.670;23.354;2022-11-21T05:22:56;93415.81;;;11.19;100.00
20622;BME280;10470;42.670;23.354;2022-11-21T05:25:21;93404.84;;;10.81;100.00
20622;BME280;10470;42.670;23.354;2022-11-21T05:27:46;93415.28;;;11.14;100.00
20622;BME280;10470;42.670;23.354;2022-11-21T05:30:12;93429.16;;;11.17;100.00
20622;BME280;10470;42.670;23.354;2022-11-21T05:32:38;93418.56;;;11.24;100.00
20622;BME280;10470;42.670;23.354;2022-11-21T05:35:03;93406.66;;;11.22;100.00
20622;BME280;10470;42.670;23.354;2022-11-21T05:37:29;93422.38;;;11.38;100.00
20622;BME280;10470;42.670;23.354;2022-11-21T05:39:54;93439.59;;;11.18;100.00
20622;BME280;10470;42.670;23.354;2022-11-21T05:42:20;93448.16;;;11.05;100.00
20622;BME280;10470;42.670;23.354;2022-11-21T05:45:06;93455.97;;;11.18;100.00
20622;BME280;10470;42.670;23.354;2022-11-21T05:47:31;93481.72;;;11.17;100.00
20622;BME280;10470;42.670;23.354;2022-11-21T05:49:57;93493.09;;;10.89;100.00
20622;BME280;10470;42.670;23.354;2022-11-21T05:52:22;93459.66;;;10.89;100.00
20622;BME280;10470;42.670;23.354;2022-11-21T05:54:48;93471.38;;;10.69;100.00
20622;BME280;10470;42.670;23.354;2022-11-21T05:57:13;93489.25;;;10.49;100.00
20622;BME280;10470;42.670;23.354;2022-11-21T05:59:38;93496.75;;;10.34;100.00
20622;BME280;10470;42.670;23.354;2022-11-21T06:02:04;93493.03;;;10.17;100.00
20622;BME280;10470;42.670;23.354;2022-11-21T06:05:02;93490.78;;;9.95;100.00
20622;BME280;10470;42.670;23.354;2022-11-21T06:07:27;93493.28;;;9.78;100.00
20622;BME280;10470;42.670;23.354;2022-11-21T06:09:52;93497.31;;;9.47;100.00
20622;BME280;10470;42.670;23.354;2022-11-21T06:12:18;93508.94;;;9.33;100.00
20622;BME280;10470;42.670;23.354;2022-11-21T06:14:44;93520.94;;;9.41;100.00
20622;BME280;10470;42.670;23.354;2022-11-21T06:17:10;93499.97;;;9.27;100.00
20622;BME280;10470;42.670;23.354;2022-11-21T06:19:36;93523.19;;;9.28;100.00
20622;BME280;10470;42.670;23.354;2022-11-21T06:22:01;93538.28;;;9.14;100.00
20622;BME280;10470;42.670;23.354;2022-11-21T06:24:26;93561.25;;;9.28;100.00
20622;BME280;10470;42.670;23.354;2022-11-21T06:26:52;93565.19;;;9.27;100.00
20622;BME280;10470;42.670;23.354;2022-11-21T06:29:17;93562.88;;;8.66;100.00
20622;BME280;10470;42.670;23.354;2022-11-21T06:31:46;93559.41;;;8.65;100.00
20622;BME280;10470;42.670;23.354;2022-11-21T06:34:12;93554.56;;;8.84;100.00
20622;BME280;10470;42.670;23.354;2022-11-21T06:36:37;93581.06;;;8.74;100.00
20622;BME280;10470;42.670;23.354;2022-11-21T06:39:03;93577.31;;;8.48;100.00
20622;BME280;10470;42.670;23.354;2022-11-21T06:41:28;93597.94;;;8.30;100.00
20622;BME280;10470;42.670;23.354;2022-11-21T06:44:00;93595.47;;;8.32;100.00
20622;BME280;10470;42.670;23.354;2022-11-21T06:46:26;93601.25;;;8.59;100.00
20622;BME280;10470;42.670;23.354;2022-11-21T06:48:52;93601.63;;;8.42;100.00
20622;BME280;10470;42.670;23.354;2022-11-21T06:51:22;93595.47;;;8.08;100.00
20622;BME280;10470;42.670;23.354;2022-11-21T06:53:56;93630.06;;;7.90;100.00
20622;BME280;10470;42.670;23.354;2022-11-21T06:56:23;93608.16;;;7.69;100.00
20622;BME280;10470;42.670;23.354;2022-11-21T06:58:50;93638.72;;;7.70;100.00
20622;BME280;10470;42.670;23.354;2022-11-21T07:01:16;93646.94;;;7.33;100.00
20622;BME280;10470;42.670;23.354;2022-11-21T07:03:42;93653.41;;;7.35;100.00
20622;BME280;10470;42.670;23.354;2022-11-21T07:06:07;93660.78;;;7.44;100.00
20622;BME280;10470;42.670;23.354;2022-11-21T07:08:34;93663.53;;;7.07;100.00
20622;BME280;10470;42.670;23.354;2022-11-21T07:11:05;93674.50;;;6.94;100.00
20622;BME280;10470;42.670;23.354;2022-11-21T07:13:31;93683.38;;;6.76;100.00
20622;BME280;10470;42.670;23.354;2022-11-21T07:16:05;93674.31;;;6.61;100.00
20622;BME280;10470;42.670;23.354;2022-11-21T07:18:31;93670.56;;;6.59;100.00
20622;BME280;10470;42.670;23.354;2022-11-21T07:21:01;93688.16;;;6.54;100.00
20622;BME280;10470;42.670;23.354;2022-11-21T07:23:27;93685.88;;;6.52;100.00
20622;BME280;10470;42.670;23.354;2022-11-21T07:25:53;93682.84;;;6.32;100.00
20622;BME280;10470;42.670;23.354;2022-11-21T07:28:19;93709.56;;;6.30;100.00
20622;BME280;10470;42.670;23.354;2022-11-21T07:30:45;93724.78;;;6.37;100.00
20622;BME280;10470;42.670;23.354;2022-11-21T07:33:10;93733.81;;;6.43;100.00
20622;BME280;10470;42.670;23.354;2022-11-21T07:35:35;93739.41;;;6.57;100.00
20622;BME280;10470;42.670;23.354;2022-11-21T07:38:02;93734.28;;;6.50;100.00
20622;BME280;10470;42.670;23.354;2022-11-21T07:40:28;93743.88;;;6.42;100.00
20622;BME280;10470;42.670;23.354;2022-11-21T07:42:59;93753.31;;;6.28;100.00
20622;BME280;10470;42.670;23.354;2022-11-21T07:45:25;93750.34;;;6.36;100.00
20622;BME280;10470;42.670;23.354;2022-11-21T07:47:59;93752.69;;;6.74;100.00
20622;BME280;10470;42.670;23.354;2022-11-21T07:50:25;93752.16;;;6.48;100.00
20622;BME280;10470;42.670;23.354;2022-11-21T07:52:56;93770.78;;;6.46;100.00
20622;BME280;10470;42.670;23.354;2022-11-21T07:55:21;93768.16;;;6.64;100.00
20622;BME280;10470;42.670;23.354;2022-11-21T07:57:47;93773.88;;;6.66;100.00
20622;BME280;10470;42.670;23.354;2022-11-21T08:00:12;93779.47;;;6.41;100.00
20622;BME280;10470;42.670;23.354;2022-11-21T08:02:38;93797.47;;;6.25;100.00
20622;BME280;10470;42.670;23.354;2022-11-21T08:05:04;93809.47;;;6.24;100.00
20622;BME280;10470;42.670;23.354;2022-11-21T08:07:30;93817.59;;;6.24;100.00
20622;BME280;10470;42.670;23.354;2022-11-21T08:09:55;93816.66;;;6.49;100.00
20622;BME280;10470;42.670;23.354;2022-11-21T08:12:21;93810.94;;;6.47;100.00
20622;BME280;10470;42.670;23.354;2022-11-21T08:14:47;93816.69;;;6.59;100.00
20622;BME280;10470;42.670;23.354;2022-11-21T08:17:12;93820.66;;;6.67;100.00
20622;BME280;10470;42.670;23.354;2022-11-21T08:19:38;93815.94;;;6.27;100.00
20622;BME280;10470;42.670;23.354;2022-11-21T08:22:03;93831.16;;;6.33;100.00
20622;BME280;10470;42.670;23.354;2022-11-21T08:24:29;93842.03;;;6.43;100.00
20622;BME280;10470;42.670;23.354;2022-11-21T08:26:54;93842.44;;;6.32;100.00
20622;BME280;10470;42.670;23.354;2022-11-21T08:29:19;93837.91;;;6.29;100.00
20622;BME280;10470;42.670;23.354;2022-11-21T08:31:45;93842.88;;;6.30;100.00
20622;BME280;10470;42.670;23.354;2022-11-21T08:34:10;93837.34;;;6.43;100.00
20622;BME280;10470;42.670;23.354;2022-11-21T08:36:36;93845.97;;;6.51;100.00
20622;BME280;10470;42.670;23.354;2022-11-21T08:39:02;93840.44;;;6.54;100.00
20622;BME280;10470;42.670;23.354;2022-11-21T08:41:28;93853.00;;;6.39;100.00
20622;BME280;10470;42.670;23.354;2022-11-21T08:44:12;93844.63;;;6.24;100.00
20622;BME280;10470;42.670;23.354;2022-11-21T08:46:37;93832.41;;;6.42;100.00
20622;BME280;10470;42.670;23.354;2022-11-21T08:49:03;93840.19;;;6.71;100.00
20622;BME280;10470;42.670;23.354;2022-11-21T08:51:29;93843.81;;;6.37;100.00
20622;BME280;10470;42.670;23.354;2022-11-21T08:53:54;93831.34;;;6.39;100.00
20622;BME280;10470;42.670;23.354;2022-11-21T08:56:20;93845.38;;;6.56;100.00
20622;BME280;10470;42.670;23.354;2022-11-21T08:58:45;93850.09;;;6.65;100.00
20622;BME280;10470;42.670;23.354;2022-11-21T09:01:11;93852.34;;;6.66;100.00
20622;BME280;10470;42.670;23.354;2022-11-21T09:03:36;93845.59;;;6.62;100.00
20622;BME280;10470;42.670;23.354;2022-11-21T09:06:01;93858.06;;;6.68;100.00
20622;BME280;10470;42.670;23.354;2022-11-21T09:08:28;93854.94;;;6.70;100.00
20622;BME280;10470;42.670;23.354;2022-11-21T09:10:54;93863.47;;;6.59;100.00
20622;BME280;10470;42.670;23.354;2022-11-21T09:13:19;93859.50;;;6.51;100.00
20622;BME280;10470;42.670;23.354;2022-11-21T09:15:45;93873.75;;;6.42;100.00
20622;BME280;10470;42.670;23.354;2022-11-21T09:18:46;93843.13;;;6.23;100.00
20622;BME280;10470;42.670;23.354;2022-11-21T09:21:15;93854.44;;;6.31;100.00
20622;BME280;10470;42.670;23.354;2022-11-21T09:23:41;93857.84;;;6.22;100.00
20622;BME280;10470;42.670;23.354;2022-11-21T09:26:06;93859.88;;;6.09;100.00
20622;BME280;10470;42.670;23.354;2022-11-21T09:28:32;93847.66;;;6.04;100.00
20622;BME280;10470;42.670;23.354;2022-11-21T09:30:57;93848.22;;;5.99;100.00
20622;BME280;10470;42.670;23.354;2022-11-21T09:33:23;93845.47;;;6.12;100.00
20622;BME280;10470;42.670;23.354;2022-11-21T09:35:48;93854.28;;;6.03;100.00
20622;BME280;10470;42.670;23.354;2022-11-21T09:38:14;93847.63;;;5.95;100.00
20622;BME280;10470;42.670;23.354;2022-11-21T09:40:45;93857.28;;;6.27;100.00
20622;BME280;10470;42.670;23.354;2022-11-21T09:43:37;93849.13;;;6.18;100.00
20622;BME280;10470;42.670;23.354;2022-11-21T09:46:14;93845.22;;;6.19;100.00
20622;BME280;10470;42.670;23.354;2022-11-21T09:48:51;93834.88;;;6.27;100.00
20622;BME280;10470;42.670;23.354;2022-11-21T09:51:19;93826.53;;;6.43;100.00
20622;BME280;10470;42.670;23.354;2022-11-21T09:56:16;93853.97;;;6.54;100.00
20622;BME280;10470;42.670;23.354;2022-11-21T09:59:07;93862.56;;;6.31;100.00
20622;BME280;10470;42.670;23.354;2022-11-21T10:01:37;93864.72;;;6.45;100.00
20622;BME280;10470;42.670;23.354;2022-11-21T10:04:03;93877.75;;;6.38;100.00
20622;BME280;10470;42.670;23.354;2022-11-21T10:06:31;93876.28;;;6.37;100.00
20622;BME280;10470;42.670;23.354;2022-11-21T10:09:10;93888.66;;;6.47;100.00
20622;BME280;10470;42.670;23.354;2022-11-21T10:18:12;93894.25;;;6.52;100.00
20622;BME280;10470;42.670;23.354;2022-11-21T10:20:53;93885.38;;;6.52;100.00
20622;BME280;10470;42.670;23.354;2022-11-21T10:26:49;93892.09;;;6.47;100.00
20622;BME280;10470;42.670;23.354;2022-11-21T10:29:24;93884.41;;;6.46;100.00
20622;BME280;10470;42.670;23.354;2022-11-21T10:31:54;93896.41;;;6.13;100.00
20622;BME280;10470;42.670;23.354;2022-11-21T10:34:25;93900.13;;;6.29;100.00
20622;BME280;10470;42.670;23.354;2022-11-21T10:37:00;93898.34;;;6.13;100.00
20622;BME280;10470;42.670;23.354;2022-11-21T10:39:47;93907.53;;;6.16;100.00
20622;BME280;10470;42.670;23.354;2022-11-21T10:42:31;93901.13;;;6.00;100.00
20622;BME280;10470;42.670;23.354;2022-11-21T10:44:59;93900.31;;;6.12;100.00
20622;BME280;10470;42.670;23.354;2022-11-21T10:47:42;93901.00;;;6.26;100.00
20622;BME280;10470;42.670;23.354;2022-11-21T10:52:37;93912.75;;;6.32;100.00
20622;BME280;10470;42.670;23.354;2022-11-21T10:55:05;93899.44;;;6.16;100.00
20622;BME280;10470;42.670;23.354;2022-11-21T10:57:45;93893.19;;;6.06;100.00
20622;BME280;10470;42.670;23.354;2022-11-21T11:02:37;93900.59;;;5.93;100.00
20622;BME280;10470;42.670;23.354;2022-11-21T11:05:17;93889.50;;;6.12;100.00
20622;BME280;10470;42.670;23.354;2022-11-21T11:07:59;93896.84;;;6.12;100.00
20622;BME280;10470;42.670;23.354;2022-11-21T11:10:25;93907.78;;;6.08;100.00
20622;BME280;10470;42.670;23.354;2022-11-21T11:12:51;93906.00;;;6.15;100.00
20622;BME280;10470;42.670;23.354;2022-11-21T11:15:37;93906.06;;;6.02;100.00
20622;BME280;10470;42.670;23.354;2022-11-21T11:18:05;93911.56;;;6.11;100.00
20622;BME280;10470;42.670;23.354;2022-11-21T11:20:39;93902.69;;;6.10;100.00
20622;BME280;10470;42.670;23.354;2022-11-21T11:25:56;93885.06;;;6.50;100.00
20622;BME280;10470;42.670;23.354;2022-11-21T11:28:32;93893.88;;;6.41;100.00
20622;BME280;10470;42.670;23.354;2022-11-21T11:30:58;93892.09;;;6.47;100.00
20622;BME280;10470;42.670;23.354;2022-11-21T11:33:34;93900.13;;;6.29;100.00
20622;BME280;10470;42.670;23.354;2022-11-21T11:38:58;93895.03;;;6.31;100.00
20622;BME280;10470;42.670;23.354;2022-11-21T11:47:23;93883.47;;;6.62;100.00
20622;BME280;10470;42.670;23.354;2022-11-21T11:50:02;93897.13;;;6.58;100.00
20622;BME280;10470;42.670;23.354;2022-11-21T11:52:43;93893.03;;;6.53;100.00
20622;BME280;10470;42.670;23.354;2022-11-21T11:57:55;93897.38;;;6.51;100.00
20622;BME280;10470;42.670;23.354;2022-11-21T12:00:58;93911.13;;;6.56;100.00
20622;BME280;10470;42.670;23.354;2022-11-21T12:04:12;93909.59;;;6.87;100.00
20622;BME280;10470;42.670;23.354;2022-11-21T12:07:01;93906.78;;;6.68;100.00
20622;BME280;10470;42.670;23.354;2022-11-21T12:12:36;93907.94;;;6.89;100.00
20622;BME280;10470;42.670;23.354;2022-11-21T12:15:24;93916.78;;;6.81;100.00
20622;BME280;10470;42.670;23.354;2022-11-21T12:23:31;93921.16;;;6.56;100.00
20622;BME280;10470;42.670;23.354;2022-11-21T12:31:45;93931.31;;;6.65;100.00
20622;BME280;10470;42.670;23.354;2022-11-21T12:42:45;93938.94;;;6.88;100.00
20622;BME280;10470;42.670;23.354;2022-11-21T12:56:55;93933.38;;;6.61;100.00
20622;BME280;10470;42.670;23.354;2022-11-21T12:59:24;93939.66;;;6.57;100.00
20622;BME280;10470;42.670;23.354;2022-11-21T13:04:26;93953.88;;;6.71;100.00
20622;BME280;10470;42.670;23.354;2022-11-21T13:06:54;93954.50;;;6.75;100.00
20622;BME280;10470;42.670;23.354;2022-11-21T13:09:22;93957.00;;;6.91;100.00
20622;BME280;10470;42.670;23.354;2022-11-21T13:12:02;93960.63;;;6.66;100.00
20622;BME280;10470;42.670;23.354;2022-11-21T13:27:37;93977.75;;;6.41;100.00
20622;BME280;10470;42.670;23.354;2022-11-21T13:32:52;93978.78;;;6.22;100.00
20622;BME280;10470;42.670;23.354;2022-11-21T13:38:05;93969.00;;;6.37;100.00
20622;BME280;10470;42.670;23.354;2022-11-21T13:40:34;93976.97;;;6.19;100.00
20622;BME280;10470;42.670;23.354;2022-11-21T13:45:51;93975.34;;;6.21;100.00
20622;BME280;10470;42.670;23.354;2022-11-21T13:53:59;93974.06;;;6.13;100.00
20622;BME280;10470;42.670;23.354;2022-11-21T14:07:46;93971.63;;;5.93;100.00
20622;BME280;10470;42.670;23.354;2022-11-21T14:10:31;93962.25;;;5.85;100.00
20622;BME280;10470;42.670;23.354;2022-11-21T14:13:01;93956.72;;;5.76;100.00
20622;BME280;10470;42.670;23.354;2022-11-21T14:15:56;93960.41;;;5.95;100.00
20622;BME280;10470;42.670;23.354;2022-11-21T14:18:26;93950.84;;;6.03;100.00
20622;BME280;10470;42.670;23.354;2022-11-21T14:20:54;93957.38;;;5.80;100.00
20622;BME280;10470;42.670;23.354;2022-11-21T14:23:23;93963.97;;;5.91;100.00
20622;BME280;10470;42.670;23.354;2022-11-21T14:26:01;93971.63;;;5.93;100.00
20622;BME280;10470;42.670;23.354;2022-11-21T14:28:30;93976.97;;;5.84;100.00
20622;BME280;10470;42.670;23.354;2022-11-21T14:30:56;93978.13;;;5.83;100.00
20622;BME280;10470;42.670;23.354;2022-11-21T14:35:57;93986.75;;;5.90;100.00
20622;BME280;10470;42.670;23.354;2022-11-21T14:38:24;93984.41;;;5.80;100.00
20622;BME280;10470;42.670;23.354;2022-11-21T14:40:50;93975.66;;;5.76;100.00
20622;BME280;10470;42.670;23.354;2022-11-21T14:43:32;93957.38;;;5.80;100.00
20622;BME280;10470;42.670;23.354;2022-11-21T14:45:58;93972.53;;;5.77;100.00
20622;BME280;10470;42.670;23.354;2022-11-21T14:48:28;93969.28;;;5.82;100.00
20622;BME280;10470;42.670;23.354;2022-11-21T14:50:56;93980.31;;;5.75;100.00
20622;BME280;10470;42.670;23.354;2022-11-21T14:53:23;93990.69;;;5.77;100.00